Time;durP1;ratioP1;P1;durP2;ratioP2;P2;SDS_P1;SDS_P2;PMS_P1;PMS_P2;Temp;Humidity;BMP_temperature;BMP_pressure;BME280_temperature;BME280_humidity;BME280_pressure;Samples;Min_cycle;Max_cycle;Signal;HPM_P1;HPM_P2
2021/03/18 00:01:18;;;;;;;11.02;5.97;;;;;;;;;;4975807;28;20172;-77
2021/03/18 00:03:44;;;;;;;11.48;6.43;;;;;;;;;;4977717;28;20176;-77
2021/03/18 00:06:11;;;;;;;12.10;6.18;;;;;;;;;;4977141;28;20259;-77
2021/03/18 00:08:38;;;;;;;10.20;6.72;;;;;;;;;;4977546;28;20215;-78
2021/03/18 00:11:14;;;;;;;12.20;7.18;;;;;;;;;;4977352;28;20525;-77
2021/03/18 00:13:41;;;;;;;13.23;7.43;;;;;;;;;;4976517;28;20177;-77
2021/03/18 00:16:08;;;;;;;12.23;5.95;;;;;;;;;;4977068;28;20211;-76
2021/03/18 00:18:37;;;;;;;8.65;6.68;;;;;;;;;;4976028;28;20176;-77
2021/03/18 00:21:03;;;;;;;7.68;5.30;;;;;;;;;;4976140;28;20230;-77
2021/03/18 00:23:29;;;;;;;21.20;6.72;;;;;;;;;;4977257;28;20188;-77
2021/03/18 00:25:57;;;;;;;10.02;6.25;;;;;;;;;;4975695;28;20223;-77
2021/03/18 00:28:23;;;;;;;11.15;6.38;;;;;;;;;;4977115;28;20212;-77
2021/03/18 00:30:49;;;;;;;9.77;7.13;;;;;;;;;;4977240;28;20590;-78
2021/03/18 00:33:15;;;;;;;9.23;5.95;;;;;;;;;;4977143;28;20204;-78
2021/03/18 00:35:42;;;;;;;9.90;5.90;;;;;;;;;;4976646;28;20214;-77
2021/03/18 00:38:08;;;;;;;9.25;6.13;;;;;;;;;;4977462;28;20509;-78
2021/03/18 00:40:45;;;;;;;10.73;6.60;;;;;;;;;;4976820;28;20188;-77
2021/03/18 00:43:12;;;;;;;11.63;7.30;;;;;;;;;;4977205;28;20263;-78
2021/03/18 00:45:39;;;;;;;14.90;8.15;;;;;;;;;;4976597;28;20196;-77
2021/03/18 00:48:06;;;;;;;15.75;7.50;;;;;;;;;;4976940;28;20547;-78
2021/03/18 00:50:32;;;;;;;14.43;7.47;;;;;;;;;;4976823;28;20192;-77
2021/03/18 00:52:58;;;;;;;14.73;8.57;;;;;;;;;;4975506;28;20185;-78
2021/03/18 00:55:25;;;;;;;12.05;7.57;;;;;;;;;;4976430;28;20502;-77
2021/03/18 00:57:51;;;;;;;12.90;7.82;;;;;;;;;;4976878;28;20179;-77
2021/03/18 01:00:22;;;;;;;8.75;6.97;;;;;;;;;;4976671;28;20255;-77
2021/03/18 01:02:50;;;;;;;15.55;9.10;;;;;;;;;;4976529;28;20223;-77
2021/03/18 01:05:18;;;;;;;12.00;7.10;;;;;;;;;;4976292;28;20379;-78
2021/03/18 01:07:44;;;;;;;9.48;6.70;;;;;;;;;;4976389;28;20183;-77
2021/03/18 01:10:11;;;;;;;7.53;6.72;;;;;;;;;;4975242;28;20191;-78
2021/03/18 01:12:37;;;;;;;8.98;7.68;;;;;;;;;;4975642;28;20212;-77
2021/03/18 01:15:04;;;;;;;10.63;7.43;;;;;;;;;;4975981;28;20680;-78
2021/03/18 01:17:30;;;;;;;11.55;9.57;;;;;;;;;;4976406;28;20184;-78
2021/03/18 01:19:56;;;;;;;13.75;7.90;;;;;;;;;;4975136;28;20188;-77
2021/03/18 01:22:22;;;;;;;13.23;9.57;;;;;;;;;;4976326;28;20184;-78
2021/03/18 01:24:48;;;;;;;16.10;8.75;;;;;;;;;;4975796;28;20184;-77
2021/03/18 01:27:15;;;;;;;13.40;8.73;;;;;;;;;;4976236;28;20184;-78
2021/03/18 01:29:41;;;;;;;11.88;8.68;;;;;;;;;;4976056;28;20208;-77
2021/03/18 01:32:07;;;;;;;10.63;7.70;;;;;;;;;;4976432;28;20207;-78
2021/03/18 01:34:33;;;;;;;12.98;8.05;;;;;;;;;;4975718;28;20467;-78
2021/03/18 01:36:59;;;;;;;15.13;9.00;;;;;;;;;;4975864;28;20212;-77
2021/03/18 01:39:25;;;;;;;13.13;9.00;;;;;;;;;;4974574;28;20563;-78
2021/03/18 01:41:50;;;;;;;14.53;8.47;;;;;;;;;;4974819;28;20431;-78
2021/03/18 01:44:16;;;;;;;12.67;8.93;;;;;;;;;;4975860;28;20477;-78
2021/03/18 01:46:42;;;;;;;10.27;8.40;;;;;;;;;;4975374;28;20440;-77
2021/03/18 01:49:08;;;;;;;11.00;8.18;;;;;;;;;;4975660;28;20463;-78
2021/03/18 01:51:34;;;;;;;17.20;8.68;;;;;;;;;;4975808;28;20323;-77
2021/03/18 01:54:00;;;;;;;15.85;11.43;;;;;;;;;;4975824;28;20275;-78
2021/03/18 01:56:26;;;;;;;17.08;9.65;;;;;;;;;;4975211;28;20204;-77
2021/03/18 01:58:52;;;;;;;13.30;9.57;;;;;;;;;;4974262;28;20542;-77
2021/03/18 02:01:19;;;;;;;11.20;8.80;;;;;;;;;;4975353;28;20223;-77
2021/03/18 02:03:45;;;;;;;15.55;9.80;;;;;;;;;;4958411;28;20191;-77
2021/03/18 02:06:11;;;;;;;12.50;10.23;;;;;;;;;;4975114;28;20282;-78
2021/03/18 02:08:37;;;;;;;21.35;11.00;;;;;;;;;;4975488;28;20247;-78
2021/03/18 02:11:04;;;;;;;13.43;11.40;;;;;;;;;;4975245;28;20180;-78
2021/03/18 02:13:31;;;;;;;13.80;9.90;;;;;;;;;;4975343;28;20889;-77
2021/03/18 02:16:07;;;;;;;20.08;10.45;;;;;;;;;;4975072;28;20236;-77
2021/03/18 02:18:40;;;;;;;14.30;10.70;;;;;;;;;;4975479;28;20176;-77
2021/03/18 02:21:26;;;;;;;16.27;9.65;;;;;;;;;;4975480;28;20186;-78
2021/03/18 02:24:01;;;;;;;21.67;10.20;;;;;;;;;;4975135;28;20232;-78
2021/03/18 02:26:33;;;;;;;29.95;11.63;;;;;;;;;;4974941;28;20613;-78
2021/03/18 02:29:14;;;;;;;11.98;9.23;;;;;;;;;;4975305;28;20211;-78
2021/03/18 02:31:43;;;;;;;14.38;10.05;;;;;;;;;;4974943;28;20172;-77
2021/03/18 02:34:21;;;;;;;11.70;10.05;;;;;;;;;;4975079;28;20629;-78
2021/03/18 02:36:48;;;;;;;11.45;9.52;;;;;;;;;;4974597;28;20204;-78
2021/03/18 02:39:16;;;;;;;15.50;10.55;;;;;;;;;;4974860;28;20176;-78
2021/03/18 02:41:48;;;;;;;13.43;9.70;;;;;;;;;;4975089;28;20207;-77
2021/03/18 02:44:20;;;;;;;16.63;11.85;;;;;;;;;;4974875;28;20177;-77
2021/03/18 02:46:48;;;;;;;14.18;10.05;;;;;;;;;;4973017;28;20568;-77
2021/03/18 02:49:15;;;;;;;13.65;10.40;;;;;;;;;;4974705;28;20203;-77
2021/03/18 02:51:42;;;;;;;15.55;11.50;;;;;;;;;;4974630;28;20180;-78
2021/03/18 02:54:10;;;;;;;15.73;11.27;;;;;;;;;;4974894;28;20172;-77
2021/03/18 02:56:37;;;;;;;20.23;12.85;;;;;;;;;;4974071;28;20203;-78
2021/03/18 02:59:04;;;;;;;17.63;12.85;;;;;;;;;;4974605;28;20231;-77
2021/03/18 03:01:30;;;;;;;16.52;12.50;;;;;;;;;;4974432;28;20560;-77
2021/03/18 03:03:57;;;;;;;23.15;11.32;;;;;;;;;;4973313;28;20192;-78
2021/03/18 03:06:23;;;;;;;17.42;10.93;;;;;;;;;;4974068;28;20215;-77
2021/03/18 03:08:49;;;;;;;16.27;12.23;;;;;;;;;;4957111;28;20207;-77
2021/03/18 03:11:18;;;;;;;15.25;11.75;;;;;;;;;;4974323;28;20184;-78
2021/03/18 03:13:45;;;;;;;13.40;11.20;;;;;;;;;;4974181;28;20622;-78
2021/03/18 03:16:13;;;;;;;13.00;11.57;;;;;;;;;;4973963;28;20188;-78
2021/03/18 03:18:39;;;;;;;15.60;11.50;;;;;;;;;;4974417;28;20185;-77
2021/03/18 03:21:05;;;;;;;17.48;12.85;;;;;;;;;;4974288;28;20641;-78
2021/03/18 03:23:33;;;;;;;21.75;14.52;;;;;;;;;;4974138;28;20188;-77
2021/03/18 03:26:00;;;;;;;23.30;14.00;;;;;;;;;;4973867;28;20290;-78
2021/03/18 03:28:27;;;;;;;20.02;13.23;;;;;;;;;;4973799;28;20196;-77
2021/03/18 03:30:53;;;;;;;21.67;15.90;;;;;;;;;;4974269;28;20550;-77
2021/03/18 03:33:19;;;;;;;18.13;13.98;;;;;;;;;;4974276;28;20180;-77
2021/03/18 03:35:45;;;;;;;19.67;14.75;;;;;;;;;;4973010;28;20204;-77
2021/03/18 03:38:11;;;;;;;25.70;13.52;;;;;;;;;;4974343;28;20614;-76
2021/03/18 03:40:37;;;;;;;17.50;13.20;;;;;;;;;;4956964;28;20188;-77
2021/03/18 03:43:03;;;;;;;20.67;12.65;;;;;;;;;;4973826;28;20420;-78
2021/03/18 03:45:30;;;;;;;19.85;12.40;;;;;;;;;;4973545;28;20200;-78
2021/03/18 03:47:56;;;;;;;21.23;14.05;;;;;;;;;;4973687;28;20226;-78
2021/03/18 03:50:24;;;;;;;17.77;13.43;;;;;;;;;;4973906;28;20334;-78
2021/03/18 03:52:56;;;;;;;20.25;14.48;;;;;;;;;;4974016;28;20176;-77
2021/03/18 03:55:42;;;;;;;17.33;14.05;;;;;;;;;;4972236;28;20258;-77
2021/03/18 03:58:17;;;;;;;19.98;13.75;;;;;;;;;;4953319;28;20197;-78
2021/03/18 04:00:44;;;;;;;19.60;14.65;;;;;;;;;;4973915;28;20318;-76
2021/03/18 04:03:11;;;;;;;18.63;14.73;;;;;;;;;;4973966;28;20199;-77
2021/03/18 04:05:41;;;;;;;18.88;14.00;;;;;;;;;;4973435;28;20196;-77
2021/03/18 04:08:08;;;;;;;19.33;12.73;;;;;;;;;;4973461;28;20294;-77
2021/03/18 04:10:34;;;;;;;16.27;14.00;;;;;;;;;;4956505;28;20659;-77
2021/03/18 04:13:01;;;;;;;19.92;13.63;;;;;;;;;;4973759;28;20204;-77
2021/03/18 04:15:30;;;;;;;20.25;13.07;;;;;;;;;;4973304;28;20204;-77
2021/03/18 04:17:56;;;;;;;22.17;15.95;;;;;;;;;;4973547;28;20173;-77
2021/03/18 04:20:23;;;;;;;16.35;13.23;;;;;;;;;;4972183;28;20283;-77
2021/03/18 04:22:52;;;;;;;19.13;13.80;;;;;;;;;;4972293;28;20325;-77
2021/03/18 04:25:18;;;;;;;18.15;14.02;;;;;;;;;;4973345;28;20212;-77
2021/03/18 04:27:45;;;;;;;18.27;14.63;;;;;;;;;;4972619;28;20259;-77
2021/03/18 04:30:16;;;;;;;14.35;9.63;;;;;;;;;;4973404;28;20208;-77
2021/03/18 04:32:44;;;;;;;19.88;15.30;;;;;;;;;;4973677;28;20209;-77
2021/03/18 04:35:11;;;;;;;26.90;16.75;;;;;;;;;;4973182;28;20199;-77
2021/03/18 04:37:37;;;;;;;21.75;15.35;;;;;;;;;;4973234;28;20195;-77
2021/03/18 04:40:04;;;;;;;24.40;15.52;;;;;;;;;;4973470;28;20227;-77
2021/03/18 04:42:30;;;;;;;24.10;16.65;;;;;;;;;;4973444;28;20219;-77
2021/03/18 04:44:57;;;;;;;21.88;15.98;;;;;;;;;;4972132;28;20262;-77
2021/03/18 04:47:23;;;;;;;23.35;18.23;;;;;;;;;;4974037;28;20216;-78
2021/03/18 04:49:50;;;;;;;27.00;17.08;;;;;;;;;;4975632;28;20302;-78
2021/03/18 04:52:17;;;;;;;22.58;19.23;;;;;;;;;;4976804;28;20507;-78
2021/03/18 04:54:43;;;;;;;32.05;18.90;;;;;;;;;;4976634;28;20176;-78
2021/03/18 04:57:10;;;;;;;26.98;19.00;;;;;;;;;;4976966;28;20177;-77
2021/03/18 04:59:37;;;;;;;23.13;17.75;;;;;;;;;;4975560;28;20179;-78
2021/03/18 05:02:04;;;;;;;30.73;18.40;;;;;;;;;;4975424;28;20545;-77
2021/03/18 05:04:31;;;;;;;25.98;19.50;;;;;;;;;;4976269;28;20263;-79
2021/03/18 05:06:58;;;;;;;25.85;17.98;;;;;;;;;;4976606;28;20199;-78
2021/03/18 05:09:24;;;;;;;26.15;19.55;;;;;;;;;;4976328;28;20211;-77
2021/03/18 05:11:51;;;;;;;30.30;20.10;;;;;;;;;;4976516;28;20202;-77
2021/03/18 05:14:17;;;;;;;34.85;19.98;;;;;;;;;;4976378;28;20172;-77
2021/03/18 05:16:43;;;;;;;33.67;21.23;;;;;;;;;;4975996;28;20279;-78
2021/03/18 05:19:10;;;;;;;30.35;22.60;;;;;;;;;;4976363;28;20212;-78
2021/03/18 05:21:38;;;;;;;26.38;21.38;;;;;;;;;;4976365;28;20179;-77
2021/03/18 05:24:04;;;;;;;31.17;22.90;;;;;;;;;;4976171;28;20176;-77
2021/03/18 05:26:30;;;;;;;32.28;22.27;;;;;;;;;;4974566;28;20203;-78
2021/03/18 05:28:56;;;;;;;29.73;22.65;;;;;;;;;;4976352;28;20204;-77
2021/03/18 05:31:23;;;;;;;31.03;20.80;;;;;;;;;;4976190;28;20177;-77
2021/03/18 05:33:49;;;;;;;30.55;22.20;;;;;;;;;;4976324;28;20420;-77
2021/03/18 05:36:15;;;;;;;30.43;21.13;;;;;;;;;;4975500;28;20583;-77
2021/03/18 05:38:40;;;;;;;29.50;19.83;;;;;;;;;;4975966;28;20423;-78
2021/03/18 05:41:07;;;;;;;28.48;20.90;;;;;;;;;;4974729;28;20432;-77
2021/03/18 05:43:32;;;;;;;24.23;18.08;;;;;;;;;;4976226;28;20180;-77
2021/03/18 05:45:58;;;;;;;38.35;20.65;;;;;;;;;;4975492;28;20238;-77
2021/03/18 05:48:25;;;;;;;27.00;19.50;;;;;;;;;;4975788;28;20211;-77
2021/03/18 05:50:51;;;;;;;33.13;20.48;;;;;;;;;;4975625;28;20909;-77
2021/03/18 05:53:18;;;;;;;23.55;19.65;;;;;;;;;;4975789;28;20222;-77
2021/03/18 05:55:45;;;;;;;25.40;18.23;;;;;;;;;;4975447;28;20536;-77
2021/03/18 05:58:12;;;;;;;26.80;19.23;;;;;;;;;;4975183;28;20182;-77
2021/03/18 06:00:39;;;;;;;23.88;18.40;;;;;;;;;;4974132;28;20183;-77
2021/03/18 06:03:05;;;;;;;33.33;21.17;;;;;;;;;;4975726;28;20267;-77
2021/03/18 06:05:31;;;;;;;24.90;20.48;;;;;;;;;;4975150;28;20278;-76
2021/03/18 06:07:57;;;;;;;28.23;21.25;;;;;;;;;;4975495;28;20197;-77
2021/03/18 06:10:24;;;;;;;27.80;20.10;;;;;;;;;;4975491;28;20176;-77
2021/03/18 06:12:51;;;;;;;31.25;21.15;;;;;;;;;;4974967;28;20181;-76
2021/03/18 06:15:18;;;;;;;28.33;19.40;;;;;;;;;;4975195;28;20645;-77
2021/03/18 06:17:45;;;;;;;23.73;17.95;;;;;;;;;;4975428;28;20596;-78
2021/03/18 06:20:13;;;;;;;24.73;19.00;;;;;;;;;;4975307;28;20194;-77
2021/03/18 06:22:43;;;;;;;21.77;18.48;;;;;;;;;;4974260;28;20230;-77
2021/03/18 06:25:29;;;;;;;23.55;16.98;;;;;;;;;;4974694;28;20200;-76
2021/03/18 06:28:13;;;;;;;23.10;17.45;;;;;;;;;;4975149;28;20493;-77
2021/03/18 06:30:40;;;;;;;22.70;18.50;;;;;;;;;;4975096;28;20174;-78
2021/03/18 06:33:22;;;;;;;26.08;19.05;;;;;;;;;;4974929;28;20202;-77
2021/03/18 06:35:48;;;;;;;26.95;18.42;;;;;;;;;;4974549;28;20212;-76
2021/03/18 06:38:14;;;;;;;28.75;20.00;;;;;;;;;;4974935;28;20268;-77
2021/03/18 06:40:44;;;;;;;25.17;18.65;;;;;;;;;;4974450;28;20227;-76
2021/03/18 06:43:11;;;;;;;25.88;18.08;;;;;;;;;;4974828;28;20270;-77
2021/03/18 06:45:38;;;;;;;24.73;20.23;;;;;;;;;;4974549;28;20224;-78
2021/03/18 06:48:05;;;;;;;23.15;19.45;;;;;;;;;;4974578;28;20326;-77
2021/03/18 06:50:36;;;;;;;25.35;18.45;;;;;;;;;;4974668;28;20181;-78
2021/03/18 06:53:02;;;;;;;28.30;19.40;;;;;;;;;;4974608;28;20179;-77
2021/03/18 06:55:30;;;;;;;27.77;18.55;;;;;;;;;;4973146;28;20622;-76
2021/03/18 06:58:15;;;;;;;24.00;17.58;;;;;;;;;;4974776;28;20177;-77
2021/03/18 07:00:41;;;;;;;28.48;18.70;;;;;;;;;;4974565;28;20178;-77
2021/03/18 07:03:09;;;;;;;26.73;18.88;;;;;;;;;;4974325;28;20170;-77
2021/03/18 07:05:40;;;;;;;31.02;19.98;;;;;;;;;;4974133;28;20186;-76
2021/03/18 07:08:06;;;;;;;26.90;19.20;;;;;;;;;;4974388;28;20257;-77
2021/03/18 07:10:34;;;;;;;31.20;22.33;;;;;;;;;;4973574;28;20177;-78
2021/03/18 07:13:16;;;;;;;32.92;21.83;;;;;;;;;;4972913;28;20181;-78
2021/03/18 07:15:42;;;;;;;37.72;22.70;;;;;;;;;;4972724;28;20561;-76
2021/03/18 07:18:08;;;;;;;35.47;23.05;;;;;;;;;;4974315;28;20543;-77
2021/03/18 07:20:34;;;;;;;35.75;24.85;;;;;;;;;;4974257;28;20173;-76
2021/03/18 07:23:00;;;;;;;34.85;24.33;;;;;;;;;;4974457;28;20180;-77
2021/03/18 07:25:27;;;;;;;39.70;26.80;;;;;;;;;;4973512;28;20335;-77
2021/03/18 07:28:00;;;;;;;33.60;24.00;;;;;;;;;;4974317;28;20622;-76
2021/03/18 07:30:32;;;;;;;36.80;25.58;;;;;;;;;;4974143;28;20264;-77
2021/03/18 07:32:58;;;;;;;39.63;26.15;;;;;;;;;;4974217;28;20177;-77
2021/03/18 07:35:25;;;;;;;37.20;24.00;;;;;;;;;;4972174;28;20256;-77
2021/03/18 07:37:53;;;;;;;36.55;23.92;;;;;;;;;;4972671;28;20201;-76
2021/03/18 07:40:20;;;;;;;37.95;22.45;;;;;;;;;;4974230;28;20347;-78
2021/03/18 07:42:46;;;;;;;35.22;24.30;;;;;;;;;;4973957;28;20256;-77
2021/03/18 07:45:13;;;;;;;36.20;23.50;;;;;;;;;;4973471;28;20288;-78
2021/03/18 07:47:41;;;;;;;40.95;25.20;;;;;;;;;;4972765;28;20192;-77
2021/03/18 07:50:10;;;;;;;47.70;29.45;;;;;;;;;;4973829;28;20204;-77
2021/03/18 07:52:38;;;;;;;43.63;25.95;;;;;;;;;;4973961;28;20177;-76
2021/03/18 07:55:05;;;;;;;37.42;25.70;;;;;;;;;;4973604;28;20190;-77
2021/03/18 07:58:00;;;;;;;40.13;25.15;;;;;;;;;;4973778;28;20190;-78
2021/03/18 08:00:26;;;;;;;42.22;25.20;;;;;;;;;;4961480;28;20203;-77
2021/03/18 08:03:11;;;;;;;39.03;23.92;;;;;;;;;;4973654;28;20182;-78
2021/03/18 08:05:39;;;;;;;49.08;27.63;;;;;;;;;;4973348;28;20198;-77
2021/03/18 08:08:05;;;;;;;45.92;27.38;;;;;;;;;;4973698;28;20178;-77
2021/03/18 08:10:31;;;;;;;43.33;29.52;;;;;;;;;;4973777;28;20256;-77
2021/03/18 08:12:58;;;;;;;45.10;29.20;;;;;;;;;;4973770;28;20261;-77
2021/03/18 08:15:29;;;;;;;37.53;23.95;;;;;;;;;;4973043;28;20420;-78
2021/03/18 08:17:56;;;;;;;50.45;26.63;;;;;;;;;;4973682;28;20180;-78
2021/03/18 08:20:37;;;;;;;60.78;32.70;;;;;;;;;;4973662;28;20186;-78
2021/03/18 08:23:23;;;;;;;41.35;27.83;;;;;;;;;;4975580;28;20177;-78
2021/03/18 08:25:51;;;;;;;35.35;24.30;;;;;;;;;;4976868;28;20620;-77
2021/03/18 08:28:36;;;;;;;37.88;25.25;;;;;;;;;;4977194;28;20265;-78
2021/03/18 08:31:03;;;;;;;41.40;23.95;;;;;;;;;;4976029;28;20179;-77
2021/03/18 08:33:40;;;;;;;36.55;21.23;;;;;;;;;;4977406;28;20176;-78
2021/03/18 08:36:24;;;;;;;32.60;23.00;;;;;;;;;;4976686;28;20222;-78
2021/03/18 08:38:52;;;;;;;30.10;22.77;;;;;;;;;;4977077;28;20200;-78
2021/03/18 08:41:38;;;;;;;32.00;22.05;;;;;;;;;;4977161;28;20189;-77
2021/03/18 08:44:10;;;;;;;35.97;22.85;;;;;;;;;;4976789;28;20277;-77
2021/03/18 08:46:48;;;;;;;32.10;21.80;;;;;;;;;;4976651;28;20205;-78
2021/03/18 08:49:18;;;;;;;34.50;21.50;;;;;;;;;;4976834;28;20535;-77
2021/03/18 08:51:44;;;;;;;33.22;21.80;;;;;;;;;;4976556;28;20259;-78
2021/03/18 08:54:11;;;;;;;35.78;23.48;;;;;;;;;;4975445;28;20192;-77
2021/03/18 08:56:43;;;;;;;36.15;20.42;;;;;;;;;;4976543;28;20192;-76
2021/03/18 08:59:12;;;;;;;31.08;20.90;;;;;;;;;;4976841;28;20194;-78
2021/03/18 09:01:38;;;;;;;34.83;21.70;;;;;;;;;;4976671;28;20180;-78
2021/03/18 09:04:04;;;;;;;33.03;21.10;;;;;;;;;;4976525;28;20191;-77
2021/03/18 09:06:33;;;;;;;29.55;19.17;;;;;;;;;;4976112;28;20366;-78
2021/03/18 09:09:00;;;;;;;33.25;20.63;;;;;;;;;;4975233;28;20620;-77
2021/03/18 09:11:26;;;;;;;29.20;21.02;;;;;;;;;;4976520;28;20171;-79
2021/03/18 09:13:52;;;;;;;32.20;22.20;;;;;;;;;;4976429;28;20188;-77
2021/03/18 09:16:20;;;;;;;31.85;20.45;;;;;;;;;;4975851;28;20198;-78
2021/03/18 09:18:47;;;;;;;31.70;22.88;;;;;;;;;;4976556;28;20187;-77
2021/03/18 09:21:13;;;;;;;31.38;21.55;;;;;;;;;;4976313;28;20227;-77
2021/03/18 09:23:40;;;;;;;27.95;19.00;;;;;;;;;;4976466;28;20255;-77
2021/03/18 09:26:08;;;;;;;33.38;21.30;;;;;;;;;;4974652;28;20204;-77
2021/03/18 09:28:35;;;;;;;28.48;20.38;;;;;;;;;;4976172;28;20258;-76
2021/03/18 09:31:01;;;;;;;20.52;17.13;;;;;;;;;;4975076;28;20186;-77
2021/03/18 09:33:30;;;;;;;30.42;18.73;;;;;;;;;;4958274;28;20635;-77
2021/03/18 09:35:58;;;;;;;24.85;16.95;;;;;;;;;;4975632;28;20605;-78
2021/03/18 09:38:26;;;;;;;25.98;19.33;;;;;;;;;;4975807;28;20184;-77
2021/03/18 09:40:53;;;;;;;25.48;18.25;;;;;;;;;;4976146;28;20177;-77
2021/03/18 09:43:20;;;;;;;23.48;16.60;;;;;;;;;;4976069;28;20176;-78
2021/03/18 09:45:53;;;;;;;20.02;15.38;;;;;;;;;;4975747;28;20547;-78
2021/03/18 09:48:27;;;;;;;32.35;16.73;;;;;;;;;;4975582;28;20180;-77
2021/03/18 09:50:54;;;;;;;24.77;16.38;;;;;;;;;;4975092;28;20187;-77
2021/03/18 09:53:20;;;;;;;20.00;14.75;;;;;;;;;;4974466;28;20220;-78
2021/03/18 09:55:47;;;;;;;22.35;12.77;;;;;;;;;;4975528;28;20681;-76
2021/03/18 09:58:14;;;;;;;16.90;11.70;;;;;;;;;;4975840;28;20181;-77
2021/03/18 10:00:41;;;;;;;17.42;13.65;;;;;;;;;;4975626;28;20564;-77
2021/03/18 10:03:07;;;;;;;21.33;12.88;;;;;;;;;;4975465;28;20533;-77
2021/03/18 10:05:33;;;;;;;16.05;11.82;;;;;;;;;;4975146;28;20200;-77
2021/03/18 10:07:59;;;;;;;16.75;11.65;;;;;;;;;;4975564;28;20593;-78
2021/03/18 10:10:25;;;;;;;17.58;10.77;;;;;;;;;;4974401;28;20212;-78
2021/03/18 10:12:53;;;;;;;15.27;11.23;;;;;;;;;;4973145;28;20188;-78
2021/03/18 10:15:20;;;;;;;16.15;10.55;;;;;;;;;;4971822;28;20680;-78
2021/03/18 10:17:47;;;;;;;16.25;10.50;;;;;;;;;;4972656;28;20199;-77
2021/03/18 10:20:32;;;;;;;12.65;10.10;;;;;;;;;;4972703;28;20188;-77
2021/03/18 10:23:01;;;;;;;16.63;10.55;;;;;;;;;;4970040;28;20569;-78
2021/03/18 10:25:28;;;;;;;14.65;9.65;;;;;;;;;;4974469;28;20524;-78
2021/03/18 10:27:59;;;;;;;17.17;11.23;;;;;;;;;;4972199;28;20176;-78
2021/03/18 10:30:26;;;;;;;16.25;10.30;;;;;;;;;;4974362;28;20231;-77
2021/03/18 10:33:02;;;;;;;14.02;9.23;;;;;;;;;;4974431;28;20227;-77
2021/03/18 10:35:32;;;;;;;14.63;9.52;;;;;;;;;;4973985;28;20504;-78
2021/03/18 10:37:58;;;;;;;13.60;9.15;;;;;;;;;;4973255;28;20660;-79
2021/03/18 10:40:26;;;;;;;14.50;8.73;;;;;;;;;;4974517;28;20546;-78
2021/03/18 10:42:59;;;;;;;11.82;8.63;;;;;;;;;;4974031;28;20172;-78
2021/03/18 10:45:25;;;;;;;13.10;8.20;;;;;;;;;;4973076;28;20644;-75
2021/03/18 10:47:56;;;;;;;13.38;8.60;;;;;;;;;;4974283;28;20176;-77
2021/03/18 10:50:23;;;;;;;10.35;8.13;;;;;;;;;;4974110;28;20204;-77
2021/03/18 10:52:59;;;;;;;13.60;7.53;;;;;;;;;;4974227;28;20176;-77
2021/03/18 10:55:27;;;;;;;14.05;7.30;;;;;;;;;;4973653;28;20197;-77
2021/03/18 10:58:01;;;;;;;11.55;8.40;;;;;;;;;;4971610;28;20180;-76
2021/03/18 11:00:28;;;;;;;14.70;9.80;;;;;;;;;;4974211;28;20180;-77
2021/03/18 11:02:58;;;;;;;9.30;7.38;;;;;;;;;;4970362;28;20271;-76
2021/03/18 11:05:28;;;;;;;14.70;8.02;;;;;;;;;;4973671;28;20203;-76
2021/03/18 11:07:55;;;;;;;10.95;8.10;;;;;;;;;;4971358;28;20545;-76
2021/03/18 11:10:21;;;;;;;10.07;7.55;;;;;;;;;;4973974;28;20204;-75
2021/03/18 11:12:58;;;;;;;12.77;6.22;;;;;;;;;;4973909;28;20199;-76
2021/03/18 11:15:24;;;;;;;7.90;6.13;;;;;;;;;;4972149;28;20200;-75
2021/03/18 11:18:06;;;;;;;11.70;5.70;;;;;;;;;;4973860;28;20176;-75
2021/03/18 11:20:36;;;;;;;13.82;5.35;;;;;;;;;;4973766;28;20210;-75
2021/03/18 11:23:02;;;;;;;16.40;5.18;;;;;;;;;;4972047;28;20180;-75
2021/03/18 11:25:29;;;;;;;7.13;4.75;;;;;;;;;;4972005;28;20195;-75
2021/03/18 11:27:55;;;;;;;7.60;4.90;;;;;;;;;;4973869;28;20535;-74
2021/03/18 11:30:27;;;;;;;6.38;5.15;;;;;;;;;;4972632;28;20204;-74
2021/03/18 11:33:17;;;;;;;5.50;4.20;;;;;;;;;;4971400;28;20216;-76
2021/03/18 11:35:46;;;;;;;5.72;4.07;;;;;;;;;;4961666;28;20310;-76
2021/03/18 11:38:13;;;;;;;8.85;3.65;;;;;;;;;;4971217;28;20625;-77
2021/03/18 11:40:39;;;;;;;7.75;4.07;;;;;;;;;;4973593;28;20184;-75
2021/03/18 11:43:05;;;;;;;11.95;3.58;;;;;;;;;;4973576;28;20183;-77
2021/03/18 11:45:32;;;;;;;6.85;3.83;;;;;;;;;;4970411;28;20938;-75
2021/03/18 11:47:58;;;;;;;6.40;3.75;;;;;;;;;;4972232;28;20234;-76
2021/03/18 11:50:24;;;;;;;5.93;2.92;;;;;;;;;;4973593;28;20216;-77
2021/03/18 11:52:50;;;;;;;8.57;3.30;;;;;;;;;;4973826;28;20243;-75
2021/03/18 11:55:16;;;;;;;9.13;4.10;;;;;;;;;;4971866;28;20265;-75
2021/03/18 11:57:42;;;;;;;8.55;3.05;;;;;;;;;;4976670;28;20223;-75
2021/03/18 12:00:09;;;;;;;8.02;3.55;;;;;;;;;;4977923;28;20187;-77
2021/03/18 12:02:35;;;;;;;7.13;3.90;;;;;;;;;;4976632;28;20210;-75
2021/03/18 12:05:01;;;;;;;10.63;3.53;;;;;;;;;;4977318;28;20247;-75
2021/03/18 12:07:27;;;;;;;6.88;3.28;;;;;;;;;;4977389;28;20598;-77
2021/03/18 12:09:53;;;;;;;6.85;4.15;;;;;;;;;;4977150;28;20207;-76
2021/03/18 12:12:20;;;;;;;9.57;3.60;;;;;;;;;;4977327;28;20256;-77
2021/03/18 12:14:46;;;;;;;7.70;3.47;;;;;;;;;;4976504;28;20411;-77
2021/03/18 12:17:12;;;;;;;5.03;2.20;;;;;;;;;;4976777;28;20183;-77
2021/03/18 12:19:38;;;;;;;6.13;2.70;;;;;;;;;;4977017;28;20183;-76
2021/03/18 12:22:04;;;;;;;11.00;4.15;;;;;;;;;;4975863;28;20180;-76
2021/03/18 12:24:30;;;;;;;6.93;4.20;;;;;;;;;;4976536;28;20195;-77
2021/03/18 12:26:56;;;;;;;6.70;3.10;;;;;;;;;;4977033;28;20254;-77
2021/03/18 12:29:22;;;;;;;7.20;3.72;;;;;;;;;;4974059;28;20207;-77
2021/03/18 12:31:48;;;;;;;8.73;4.10;;;;;;;;;;4976697;28;20641;-77
2021/03/18 12:34:14;;;;;;;9.70;4.38;;;;;;;;;;4976740;28;20254;-77
2021/03/18 12:36:40;;;;;;;6.83;4.67;;;;;;;;;;4976287;28;20251;-77
2021/03/18 12:39:06;;;;;;;4.90;3.20;;;;;;;;;;4976829;28;20417;-76
2021/03/18 12:41:33;;;;;;;6.20;4.30;;;;;;;;;;4976752;28;20419;-77
2021/03/18 12:43:59;;;;;;;5.68;3.30;;;;;;;;;;4976521;28;20862;-76
2021/03/18 12:46:25;;;;;;;18.33;4.18;;;;;;;;;;4975921;28;20632;-77
2021/03/18 12:48:52;;;;;;;7.50;4.22;;;;;;;;;;4975592;28;20226;-77
2021/03/18 12:51:18;;;;;;;7.97;3.60;;;;;;;;;;4976957;28;20191;-76
2021/03/18 12:53:44;;;;;;;5.72;4.30;;;;;;;;;;4976853;28;20259;-78
2021/03/18 12:56:10;;;;;;;7.22;5.35;;;;;;;;;;4975399;28;20202;-75
2021/03/18 12:58:36;;;;;;;11.70;5.68;;;;;;;;;;4976829;28;20176;-76
2021/03/18 13:01:02;;;;;;;7.97;4.50;;;;;;;;;;4976793;28;20233;-76
2021/03/18 13:03:28;;;;;;;8.40;5.50;;;;;;;;;;4975550;28;20194;-76
2021/03/18 13:05:54;;;;;;;10.80;5.60;;;;;;;;;;4976122;28;20287;-76
2021/03/18 13:08:20;;;;;;;11.52;6.55;;;;;;;;;;4974156;28;20852;-78
2021/03/18 13:10:46;;;;;;;9.63;4.78;;;;;;;;;;4976498;28;20227;-77
2021/03/18 13:13:12;;;;;;;10.10;6.07;;;;;;;;;;4976590;28;20607;-77
2021/03/18 13:15:39;;;;;;;14.00;6.80;;;;;;;;;;4975862;28;20205;-77
2021/03/18 13:18:05;;;;;;;21.52;8.68;;;;;;;;;;4976334;28;20267;-76
2021/03/18 13:20:31;;;;;;;12.07;6.35;;;;;;;;;;4976181;28;20176;-76
2021/03/18 13:22:57;;;;;;;10.90;6.60;;;;;;;;;;4976326;28;20183;-77
2021/03/18 13:25:23;;;;;;;11.45;6.18;;;;;;;;;;4975949;28;20202;-77
2021/03/18 13:27:49;;;;;;;8.07;5.23;;;;;;;;;;4976143;28;20676;-76
2021/03/18 13:30:20;;;;;;;12.85;6.63;;;;;;;;;;4976010;28;20459;-77
2021/03/18 13:32:46;;;;;;;11.98;6.53;;;;;;;;;;4976316;28;20298;-77
2021/03/18 13:35:12;;;;;;;8.73;5.43;;;;;;;;;;4975763;28;20246;-77
2021/03/18 13:37:38;;;;;;;7.65;5.53;;;;;;;;;;4974954;28;20197;-77
2021/03/18 13:40:05;;;;;;;9.20;6.45;;;;;;;;;;4974556;28;20195;-78
2021/03/18 13:42:31;;;;;;;5.80;4.40;;;;;;;;;;4974690;28;20198;-77
2021/03/18 13:44:58;;;;;;;7.10;4.43;;;;;;;;;;4975683;28;20631;-77
2021/03/18 13:47:24;;;;;;;7.93;4.47;;;;;;;;;;4975924;28;20640;-77
2021/03/18 13:49:50;;;;;;;7.47;4.30;;;;;;;;;;4974685;28;20218;-77
2021/03/18 13:52:16;;;;;;;9.07;3.60;;;;;;;;;;4975543;28;20204;-76
2021/03/18 13:54:42;;;;;;;5.80;4.38;;;;;;;;;;4975458;28;20176;-78
2021/03/18 13:57:09;;;;;;;5.57;3.20;;;;;;;;;;4975848;28;20185;-76
2021/03/18 13:59:35;;;;;;;5.80;3.97;;;;;;;;;;4975685;28;20780;-76
2021/03/18 14:02:01;;;;;;;7.80;3.83;;;;;;;;;;4975718;28;20194;-77
2021/03/18 14:04:27;;;;;;;6.00;4.83;;;;;;;;;;4974203;28;20186;-77
2021/03/18 14:06:53;;;;;;;7.60;4.18;;;;;;;;;;4975287;28;20442;-75
2021/03/18 14:09:19;;;;;;;6.55;3.63;;;;;;;;;;4975345;28;20211;-77
2021/03/18 14:11:45;;;;;;;5.00;4.13;;;;;;;;;;4975496;28;20181;-77
2021/03/18 14:14:11;;;;;;;5.80;3.77;;;;;;;;;;4974083;28;20469;-77
2021/03/18 14:16:37;;;;;;;6.40;4.53;;;;;;;;;;4974822;28;20435;-77
2021/03/18 14:19:04;;;;;;;9.10;4.57;;;;;;;;;;4975184;28;20176;-77
2021/03/18 14:21:30;;;;;;;6.47;4.32;;;;;;;;;;4975278;28;20415;-77
2021/03/18 14:23:56;;;;;;;7.30;4.90;;;;;;;;;;4975411;28;20198;-77
2021/03/18 14:26:22;;;;;;;5.40;4.00;;;;;;;;;;4974607;28;20214;-75
2021/03/18 14:28:48;;;;;;;6.82;4.07;;;;;;;;;;4973815;28;20204;-77
2021/03/18 14:31:14;;;;;;;7.53;3.33;;;;;;;;;;4975016;28;20207;-77